sensor_id;sensor_type;location;lat;lon;timestamp;P1;durP1;ratioP1;P2;durP2;ratioP2
65971;SDS011;52726;48.852;9.152;2023-07-20T00:01:22;1.58;;;1.42;;
65971;SDS011;52726;48.852;9.152;2023-07-20T00:03:47;4.90;;;1.50;;
65971;SDS011;52726;48.852;9.152;2023-07-20T00:06:29;3.47;;;1.63;;
65971;SDS011;52726;48.852;9.152;2023-07-20T00:08:54;2.53;;;1.70;;
65971;SDS011;52726;48.852;9.152;2023-07-20T00:11:20;5.07;;;1.85;;
65971;SDS011;52726;48.852;9.152;2023-07-20T00:13:46;4.07;;;1.65;;
65971;SDS011;52726;48.852;9.152;2023-07-20T00:16:11;3.65;;;1.73;;
65971;SDS011;52726;48.852;9.152;2023-07-20T00:18:37;5.47;;;2.03;;
65971;SDS011;52726;48.852;9.152;2023-07-20T00:21:02;3.55;;;1.98;;
65971;SDS011;52726;48.852;9.152;2023-07-20T00:23:27;1.98;;;1.50;;
65971;SDS011;52726;48.852;9.152;2023-07-20T00:26:12;2.03;;;1.50;;
65971;SDS011;52726;48.852;9.152;2023-07-20T00:28:37;2.17;;;1.60;;
65971;SDS011;52726;48.852;9.152;2023-07-20T00:31:02;3.53;;;1.65;;
65971;SDS011;52726;48.852;9.152;2023-07-20T00:33:29;2.85;;;1.45;;
65971;SDS011;52726;48.852;9.152;2023-07-20T00:39:14;2.28;;;1.45;;
65971;SDS011;52726;48.852;9.152;2023-07-20T00:41:40;4.15;;;1.88;;
65971;SDS011;52726;48.852;9.152;2023-07-20T00:44:05;3.45;;;2.00;;
65971;SDS011;52726;48.852;9.152;2023-07-20T00:46:31;2.65;;;1.30;;
65971;SDS011;52726;48.852;9.152;2023-07-20T00:48:57;3.30;;;1.65;;
65971;SDS011;52726;48.852;9.152;2023-07-20T00:51:23;1.52;;;1.27;;
65971;SDS011;52726;48.852;9.152;2023-07-20T00:54:00;3.92;;;1.60;;
65971;SDS011;52726;48.852;9.152;2023-07-20T00:56:25;2.35;;;1.15;;
65971;SDS011;52726;48.852;9.152;2023-07-20T01:02:01;1.88;;;1.50;;
65971;SDS011;52726;48.852;9.152;2023-07-20T01:04:27;2.45;;;1.67;;
65971;SDS011;52726;48.852;9.152;2023-07-20T01:06:57;2.42;;;1.60;;
65971;SDS011;52726;48.852;9.152;2023-07-20T01:12:33;2.47;;;1.13;;
65971;SDS011;52726;48.852;9.152;2023-07-20T01:15:07;2.47;;;1.30;;
65971;SDS011;52726;48.852;9.152;2023-07-20T01:17:33;1.88;;;1.50;;
65971;SDS011;52726;48.852;9.152;2023-07-20T01:19:59;2.13;;;1.58;;
65971;SDS011;52726;48.852;9.152;2023-07-20T01:25:45;3.72;;;1.40;;
65971;SDS011;52726;48.852;9.152;2023-07-20T01:33:58;1.40;;;1.30;;
65971;SDS011;52726;48.852;9.152;2023-07-20T01:36:27;3.03;;;1.45;;
65971;SDS011;52726;48.852;9.152;2023-07-20T01:38:59;4.18;;;1.75;;
65971;SDS011;52726;48.852;9.152;2023-07-20T01:41:25;4.20;;;1.40;;
65971;SDS011;52726;48.852;9.152;2023-07-20T01:43:50;5.03;;;1.48;;
65971;SDS011;52726;48.852;9.152;2023-07-20T01:46:16;3.25;;;1.55;;
65971;SDS011;52726;48.852;9.152;2023-07-20T01:48:41;3.70;;;1.23;;
65971;SDS011;52726;48.852;9.152;2023-07-20T01:51:07;1.85;;;1.30;;
65971;SDS011;52726;48.852;9.152;2023-07-20T01:53:32;2.47;;;1.42;;
65971;SDS011;52726;48.852;9.152;2023-07-20T01:55:58;4.70;;;1.30;;
65971;SDS011;52726;48.852;9.152;2023-07-20T01:58:23;2.00;;;1.52;;
65971;SDS011;52726;48.852;9.152;2023-07-20T02:00:49;2.17;;;1.20;;
65971;SDS011;52726;48.852;9.152;2023-07-20T02:03:15;2.72;;;1.55;;
65971;SDS011;52726;48.852;9.152;2023-07-20T02:05:43;1.85;;;1.40;;
65971;SDS011;52726;48.852;9.152;2023-07-20T02:08:09;4.40;;;2.03;;
65971;SDS011;52726;48.852;9.152;2023-07-20T02:10:34;2.58;;;1.60;;
65971;SDS011;52726;48.852;9.152;2023-07-20T02:13:00;2.05;;;1.40;;
65971;SDS011;52726;48.852;9.152;2023-07-20T02:15:25;2.53;;;1.73;;
65971;SDS011;52726;48.852;9.152;2023-07-20T02:17:51;3.08;;;1.65;;
65971;SDS011;52726;48.852;9.152;2023-07-20T02:20:16;6.03;;;1.48;;
65971;SDS011;52726;48.852;9.152;2023-07-20T02:22:43;3.45;;;1.63;;
65971;SDS011;52726;48.852;9.152;2023-07-20T02:25:08;5.47;;;1.90;;
65971;SDS011;52726;48.852;9.152;2023-07-20T02:27:34;1.73;;;1.60;;
65971;SDS011;52726;48.852;9.152;2023-07-20T02:29:59;2.55;;;1.70;;
65971;SDS011;52726;48.852;9.152;2023-07-20T02:32:25;1.73;;;1.48;;
65971;SDS011;52726;48.852;9.152;2023-07-20T02:34:51;2.80;;;1.48;;
65971;SDS011;52726;48.852;9.152;2023-07-20T02:37:16;4.07;;;1.70;;
65971;SDS011;52726;48.852;9.152;2023-07-20T02:39:42;2.08;;;1.35;;
65971;SDS011;52726;48.852;9.152;2023-07-20T02:42:08;3.50;;;1.48;;
65971;SDS011;52726;48.852;9.152;2023-07-20T02:44:33;5.95;;;1.60;;
65971;SDS011;52726;48.852;9.152;2023-07-20T02:46:58;3.10;;;1.58;;
65971;SDS011;52726;48.852;9.152;2023-07-20T02:49:24;2.13;;;1.60;;
65971;SDS011;52726;48.852;9.152;2023-07-20T02:51:49;2.80;;;1.70;;
65971;SDS011;52726;48.852;9.152;2023-07-20T02:54:14;3.40;;;1.80;;
65971;SDS011;52726;48.852;9.152;2023-07-20T02:56:40;1.65;;;1.40;;
65971;SDS011;52726;48.852;9.152;2023-07-20T02:59:06;3.72;;;1.55;;
65971;SDS011;52726;48.852;9.152;2023-07-20T03:01:31;2.35;;;1.55;;
65971;SDS011;52726;48.852;9.152;2023-07-20T03:03:56;2.15;;;1.67;;
65971;SDS011;52726;48.852;9.152;2023-07-20T03:06:22;2.83;;;1.80;;
65971;SDS011;52726;48.852;9.152;2023-07-20T03:08:48;4.72;;;2.03;;
65971;SDS011;52726;48.852;9.152;2023-07-20T03:11:16;6.20;;;1.75;;
65971;SDS011;52726;48.852;9.152;2023-07-20T03:13:41;4.40;;;1.73;;
65971;SDS011;52726;48.852;9.152;2023-07-20T03:16:08;4.20;;;1.50;;
65971;SDS011;52726;48.852;9.152;2023-07-20T03:18:36;3.05;;;1.60;;
65971;SDS011;52726;48.852;9.152;2023-07-20T03:21:03;4.53;;;1.50;;
65971;SDS011;52726;48.852;9.152;2023-07-20T03:23:29;4.07;;;1.80;;
65971;SDS011;52726;48.852;9.152;2023-07-20T03:25:54;7.13;;;1.80;;
65971;SDS011;52726;48.852;9.152;2023-07-20T03:28:20;5.85;;;1.70;;
65971;SDS011;52726;48.852;9.152;2023-07-20T03:30:45;5.65;;;1.65;;
65971;SDS011;52726;48.852;9.152;2023-07-20T03:33:11;2.40;;;1.55;;
65971;SDS011;52726;48.852;9.152;2023-07-20T03:35:36;3.55;;;1.40;;
65971;SDS011;52726;48.852;9.152;2023-07-20T03:38:02;3.92;;;1.80;;
65971;SDS011;52726;48.852;9.152;2023-07-20T03:40:27;3.65;;;1.88;;
65971;SDS011;52726;48.852;9.152;2023-07-20T03:42:53;1.90;;;1.25;;
65971;SDS011;52726;48.852;9.152;2023-07-20T03:45:18;2.50;;;1.83;;
65971;SDS011;52726;48.852;9.152;2023-07-20T03:47:43;3.50;;;1.80;;
65971;SDS011;52726;48.852;9.152;2023-07-20T03:50:09;2.42;;;1.45;;
65971;SDS011;52726;48.852;9.152;2023-07-20T03:52:35;4.95;;;1.65;;
65971;SDS011;52726;48.852;9.152;2023-07-20T03:55:01;3.55;;;1.75;;
65971;SDS011;52726;48.852;9.152;2023-07-20T03:57:26;2.47;;;1.52;;
65971;SDS011;52726;48.852;9.152;2023-07-20T03:59:52;5.15;;;2.05;;
65971;SDS011;52726;48.852;9.152;2023-07-20T04:02:17;2.42;;;1.63;;
65971;SDS011;52726;48.852;9.152;2023-07-20T04:04:43;3.30;;;1.50;;
65971;SDS011;52726;48.852;9.152;2023-07-20T04:07:08;2.15;;;1.45;;
65971;SDS011;52726;48.852;9.152;2023-07-20T04:09:34;2.78;;;1.52;;
65971;SDS011;52726;48.852;9.152;2023-07-20T04:11:59;5.22;;;1.45;;
65971;SDS011;52726;48.852;9.152;2023-07-20T04:14:25;4.63;;;1.77;;
65971;SDS011;52726;48.852;9.152;2023-07-20T04:16:50;3.58;;;1.77;;
65971;SDS011;52726;48.852;9.152;2023-07-20T04:19:16;1.48;;;1.38;;
65971;SDS011;52726;48.852;9.152;2023-07-20T04:21:43;2.10;;;1.80;;
65971;SDS011;52726;48.852;9.152;2023-07-20T04:24:08;4.05;;;1.83;;
65971;SDS011;52726;48.852;9.152;2023-07-20T04:26:34;2.95;;;1.70;;
65971;SDS011;52726;48.852;9.152;2023-07-20T04:29:00;1.75;;;1.40;;
65971;SDS011;52726;48.852;9.152;2023-07-20T04:31:26;4.15;;;1.90;;
65971;SDS011;52726;48.852;9.152;2023-07-20T04:33:51;2.97;;;1.92;;
65971;SDS011;52726;48.852;9.152;2023-07-20T04:36:16;6.38;;;1.58;;
65971;SDS011;52726;48.852;9.152;2023-07-20T04:38:47;4.68;;;1.80;;
65971;SDS011;52726;48.852;9.152;2023-07-20T04:41:12;3.58;;;1.98;;
65971;SDS011;52726;48.852;9.152;2023-07-20T04:43:42;2.65;;;1.60;;
65971;SDS011;52726;48.852;9.152;2023-07-20T04:46:08;2.13;;;1.65;;
65971;SDS011;52726;48.852;9.152;2023-07-20T04:48:34;5.85;;;1.80;;
65971;SDS011;52726;48.852;9.152;2023-07-20T04:50:59;4.78;;;2.00;;
65971;SDS011;52726;48.852;9.152;2023-07-20T04:53:24;1.63;;;1.45;;
65971;SDS011;52726;48.852;9.152;2023-07-20T04:55:50;3.08;;;1.88;;
65971;SDS011;52726;48.852;9.152;2023-07-20T04:58:16;2.92;;;1.75;;
65971;SDS011;52726;48.852;9.152;2023-07-20T05:00:43;5.40;;;1.60;;
65971;SDS011;52726;48.852;9.152;2023-07-20T05:03:09;2.50;;;1.60;;
65971;SDS011;52726;48.852;9.152;2023-07-20T05:05:34;2.63;;;1.77;;
65971;SDS011;52726;48.852;9.152;2023-07-20T05:07:59;4.97;;;1.70;;
65971;SDS011;52726;48.852;9.152;2023-07-20T05:10:25;1.48;;;1.35;;
65971;SDS011;52726;48.852;9.152;2023-07-20T05:12:50;5.97;;;1.80;;
65971;SDS011;52726;48.852;9.152;2023-07-20T05:15:16;2.88;;;1.65;;
65971;SDS011;52726;48.852;9.152;2023-07-20T05:17:41;3.15;;;1.60;;
65971;SDS011;52726;48.852;9.152;2023-07-20T05:20:07;3.45;;;2.15;;
65971;SDS011;52726;48.852;9.152;2023-07-20T05:22:35;3.15;;;1.73;;
65971;SDS011;52726;48.852;9.152;2023-07-20T05:25:00;5.20;;;2.10;;
65971;SDS011;52726;48.852;9.152;2023-07-20T05:27:26;4.97;;;1.65;;
65971;SDS011;52726;48.852;9.152;2023-07-20T05:29:51;3.28;;;2.00;;
65971;SDS011;52726;48.852;9.152;2023-07-20T05:32:16;2.70;;;1.58;;
65971;SDS011;52726;48.852;9.152;2023-07-20T05:34:42;2.47;;;1.88;;
65971;SDS011;52726;48.852;9.152;2023-07-20T05:37:07;2.88;;;1.50;;
65971;SDS011;52726;48.852;9.152;2023-07-20T05:39:33;3.47;;;1.65;;
65971;SDS011;52726;48.852;9.152;2023-07-20T05:41:58;3.30;;;1.67;;
65971;SDS011;52726;48.852;9.152;2023-07-20T05:44:23;1.40;;;1.30;;
65971;SDS011;52726;48.852;9.152;2023-07-20T05:46:49;4.72;;;1.77;;
65971;SDS011;52726;48.852;9.152;2023-07-20T05:49:14;4.30;;;2.00;;
65971;SDS011;52726;48.852;9.152;2023-07-20T05:51:39;3.92;;;1.73;;
65971;SDS011;52726;48.852;9.152;2023-07-20T05:54:05;2.67;;;1.70;;
65971;SDS011;52726;48.852;9.152;2023-07-20T05:56:30;5.80;;;1.33;;
65971;SDS011;52726;48.852;9.152;2023-07-20T05:58:56;3.15;;;1.73;;
65971;SDS011;52726;48.852;9.152;2023-07-20T06:01:21;5.22;;;1.60;;
65971;SDS011;52726;48.852;9.152;2023-07-20T06:03:47;4.18;;;1.73;;
65971;SDS011;52726;48.852;9.152;2023-07-20T06:06:12;3.63;;;2.00;;
65971;SDS011;52726;48.852;9.152;2023-07-20T06:08:38;3.00;;;1.60;;
65971;SDS011;52726;48.852;9.152;2023-07-20T06:11:03;1.90;;;1.60;;
65971;SDS011;52726;48.852;9.152;2023-07-20T06:13:29;2.70;;;1.50;;
65971;SDS011;52726;48.852;9.152;2023-07-20T06:15:54;4.05;;;1.63;;
65971;SDS011;52726;48.852;9.152;2023-07-20T06:18:22;4.68;;;1.73;;
65971;SDS011;52726;48.852;9.152;2023-07-20T06:20:48;5.45;;;1.65;;
65971;SDS011;52726;48.852;9.152;2023-07-20T06:23:18;6.40;;;1.70;;
65971;SDS011;52726;48.852;9.152;2023-07-20T06:25:44;6.70;;;1.67;;
65971;SDS011;52726;48.852;9.152;2023-07-20T06:28:09;3.20;;;1.73;;
65971;SDS011;52726;48.852;9.152;2023-07-20T06:30:37;3.13;;;1.60;;
65971;SDS011;52726;48.852;9.152;2023-07-20T06:33:03;6.07;;;1.48;;
65971;SDS011;52726;48.852;9.152;2023-07-20T06:35:28;3.70;;;1.58;;
65971;SDS011;52726;48.852;9.152;2023-07-20T06:37:53;3.85;;;1.60;;
65971;SDS011;52726;48.852;9.152;2023-07-20T06:40:19;2.72;;;1.33;;
65971;SDS011;52726;48.852;9.152;2023-07-20T06:42:49;2.95;;;1.50;;
65971;SDS011;52726;48.852;9.152;2023-07-20T06:45:18;5.18;;;1.30;;
65971;SDS011;52726;48.852;9.152;2023-07-20T06:47:49;2.30;;;1.45;;
65971;SDS011;52726;48.852;9.152;2023-07-20T06:50:18;2.28;;;1.38;;
65971;SDS011;52726;48.852;9.152;2023-07-20T06:52:43;7.40;;;1.75;;
65971;SDS011;52726;48.852;9.152;2023-07-20T06:55:09;4.47;;;1.60;;
65971;SDS011;52726;48.852;9.152;2023-07-20T06:57:38;2.35;;;1.58;;
65971;SDS011;52726;48.852;9.152;2023-07-20T07:00:03;3.53;;;1.65;;
65971;SDS011;52726;48.852;9.152;2023-07-20T07:02:31;4.65;;;1.60;;
65971;SDS011;52726;48.852;9.152;2023-07-20T07:04:57;3.88;;;1.50;;
65971;SDS011;52726;48.852;9.152;2023-07-20T07:07:22;5.65;;;1.42;;
65971;SDS011;52726;48.852;9.152;2023-07-20T07:09:47;1.58;;;1.30;;
65971;SDS011;52726;48.852;9.152;2023-07-20T07:12:13;1.77;;;1.40;;
65971;SDS011;52726;48.852;9.152;2023-07-20T07:14:39;5.07;;;1.30;;
65971;SDS011;52726;48.852;9.152;2023-07-20T07:17:04;3.22;;;1.63;;
65971;SDS011;52726;48.852;9.152;2023-07-20T07:19:30;2.67;;;1.60;;
65971;SDS011;52726;48.852;9.152;2023-07-20T07:21:56;2.67;;;1.50;;
65971;SDS011;52726;48.852;9.152;2023-07-20T07:27:43;5.05;;;1.52;;
65971;SDS011;52726;48.852;9.152;2023-07-20T07:30:08;2.85;;;1.30;;
65971;SDS011;52726;48.852;9.152;2023-07-20T07:32:34;2.08;;;1.20;;
65971;SDS011;52726;48.852;9.152;2023-07-20T07:34:59;3.10;;;1.58;;
65971;SDS011;52726;48.852;9.152;2023-07-20T07:37:25;4.15;;;1.63;;
65971;SDS011;52726;48.852;9.152;2023-07-20T07:39:51;1.75;;;1.40;;
65971;SDS011;52726;48.852;9.152;2023-07-20T07:42:16;2.75;;;1.45;;
65971;SDS011;52726;48.852;9.152;2023-07-20T07:44:41;4.57;;;1.48;;
65971;SDS011;52726;48.852;9.152;2023-07-20T07:47:07;5.35;;;1.48;;
65971;SDS011;52726;48.852;9.152;2023-07-20T07:49:32;2.10;;;1.58;;
65971;SDS011;52726;48.852;9.152;2023-07-20T07:51:57;2.63;;;1.45;;
65971;SDS011;52726;48.852;9.152;2023-07-20T07:54:23;2.80;;;1.20;;
65971;SDS011;52726;48.852;9.152;2023-07-20T07:56:48;2.65;;;1.48;;
65971;SDS011;52726;48.852;9.152;2023-07-20T07:59:26;3.30;;;1.50;;
65971;SDS011;52726;48.852;9.152;2023-07-20T08:02:07;1.95;;;1.50;;
65971;SDS011;52726;48.852;9.152;2023-07-20T08:04:33;3.63;;;1.42;;
65971;SDS011;52726;48.852;9.152;2023-07-20T08:06:59;6.97;;;1.70;;
65971;SDS011;52726;48.852;9.152;2023-07-20T08:09:24;1.95;;;1.48;;
65971;SDS011;52726;48.852;9.152;2023-07-20T08:11:50;1.45;;;1.35;;
65971;SDS011;52726;48.852;9.152;2023-07-20T08:14:16;2.95;;;1.35;;
65971;SDS011;52726;48.852;9.152;2023-07-20T08:16:41;3.28;;;1.48;;
65971;SDS011;52726;48.852;9.152;2023-07-20T08:19:08;4.40;;;1.63;;
65971;SDS011;52726;48.852;9.152;2023-07-20T08:21:33;3.28;;;1.50;;
65971;SDS011;52726;48.852;9.152;2023-07-20T08:24:04;2.95;;;1.38;;
65971;SDS011;52726;48.852;9.152;2023-07-20T08:26:33;4.68;;;1.48;;
65971;SDS011;52726;48.852;9.152;2023-07-20T08:28:58;5.95;;;1.67;;
65971;SDS011;52726;48.852;9.152;2023-07-20T08:31:24;3.33;;;1.60;;
65971;SDS011;52726;48.852;9.152;2023-07-20T08:33:49;3.25;;;1.38;;
65971;SDS011;52726;48.852;9.152;2023-07-20T08:36:14;2.22;;;1.48;;
65971;SDS011;52726;48.852;9.152;2023-07-20T08:38:41;5.68;;;1.75;;
65971;SDS011;52726;48.852;9.152;2023-07-20T08:41:06;2.42;;;1.60;;
65971;SDS011;52726;48.852;9.152;2023-07-20T08:43:32;4.13;;;1.58;;
65971;SDS011;52726;48.852;9.152;2023-07-20T08:45:58;4.78;;;1.38;;
65971;SDS011;52726;48.852;9.152;2023-07-20T08:48:24;3.05;;;1.30;;
65971;SDS011;52726;48.852;9.152;2023-07-20T08:50:51;2.92;;;1.45;;
65971;SDS011;52726;48.852;9.152;2023-07-20T08:53:21;2.50;;;1.60;;
65971;SDS011;52726;48.852;9.152;2023-07-20T08:55:46;1.70;;;1.23;;
65971;SDS011;52726;48.852;9.152;2023-07-20T08:58:14;1.35;;;1.25;;
65971;SDS011;52726;48.852;9.152;2023-07-20T09:00:41;6.20;;;1.40;;
65971;SDS011;52726;48.852;9.152;2023-07-20T09:03:07;1.75;;;1.17;;
65971;SDS011;52726;48.852;9.152;2023-07-20T09:05:33;2.80;;;1.38;;
65971;SDS011;52726;48.852;9.152;2023-07-20T09:08:00;1.65;;;1.50;;
65971;SDS011;52726;48.852;9.152;2023-07-20T09:10:26;2.33;;;1.33;;
65971;SDS011;52726;48.852;9.152;2023-07-20T09:12:51;2.08;;;1.17;;
65971;SDS011;52726;48.852;9.152;2023-07-20T09:15:16;1.52;;;1.25;;
65971;SDS011;52726;48.852;9.152;2023-07-20T09:17:46;5.30;;;1.35;;
65971;SDS011;52726;48.852;9.152;2023-07-20T09:20:12;2.63;;;1.50;;
65971;SDS011;52726;48.852;9.152;2023-07-20T09:22:40;3.95;;;1.42;;
65971;SDS011;52726;48.852;9.152;2023-07-20T09:25:12;3.92;;;1.20;;
65971;SDS011;52726;48.852;9.152;2023-07-20T09:30:44;1.75;;;1.27;;
65971;SDS011;52726;48.852;9.152;2023-07-20T09:33:17;1.75;;;1.17;;
65971;SDS011;52726;48.852;9.152;2023-07-20T09:35:44;1.45;;;0.98;;
65971;SDS011;52726;48.852;9.152;2023-07-20T09:38:10;1.60;;;1.02;;
65971;SDS011;52726;48.852;9.152;2023-07-20T09:40:38;2.17;;;1.15;;
65971;SDS011;52726;48.852;9.152;2023-07-20T09:43:07;1.20;;;1.10;;
65971;SDS011;52726;48.852;9.152;2023-07-20T09:45:34;3.22;;;1.15;;
65971;SDS011;52726;48.852;9.152;2023-07-20T09:48:07;0.98;;;0.90;;
65971;SDS011;52726;48.852;9.152;2023-07-20T09:50:34;1.38;;;0.90;;
65971;SDS011;52726;48.852;9.152;2023-07-20T09:56:50;2.00;;;1.20;;
65971;SDS011;52726;48.852;9.152;2023-07-20T09:59:17;3.17;;;1.23;;
65971;SDS011;52726;48.852;9.152;2023-07-20T10:01:42;3.13;;;1.50;;
65971;SDS011;52726;48.852;9.152;2023-07-20T10:04:10;1.75;;;1.30;;
65971;SDS011;52726;48.852;9.152;2023-07-20T10:06:39;0.95;;;0.95;;
65971;SDS011;52726;48.852;9.152;2023-07-20T10:09:08;3.63;;;1.17;;
65971;SDS011;52726;48.852;9.152;2023-07-20T10:11:36;1.30;;;1.20;;
65971;SDS011;52726;48.852;9.152;2023-07-20T10:14:07;0.73;;;0.73;;
65971;SDS011;52726;48.852;9.152;2023-07-20T10:16:36;3.00;;;1.30;;
65971;SDS011;52726;48.852;9.152;2023-07-20T10:21:56;2.08;;;1.05;;
65971;SDS011;52726;48.852;9.152;2023-07-20T10:24:26;0.73;;;0.73;;
65971;SDS011;52726;48.852;9.152;2023-07-20T10:26:53;2.75;;;1.00;;
65971;SDS011;52726;48.852;9.152;2023-07-20T10:29:20;1.00;;;0.77;;
65971;SDS011;52726;48.852;9.152;2023-07-20T10:31:46;2.15;;;1.05;;
65971;SDS011;52726;48.852;9.152;2023-07-20T10:34:12;1.38;;;1.02;;
65971;SDS011;52726;48.852;9.152;2023-07-20T10:36:43;1.60;;;1.23;;
65971;SDS011;52726;48.852;9.152;2023-07-20T10:42:06;1.75;;;1.10;;
65971;SDS011;52726;48.852;9.152;2023-07-20T10:44:33;0.60;;;0.60;;
65971;SDS011;52726;48.852;9.152;2023-07-20T10:47:02;2.55;;;1.30;;
65971;SDS011;52726;48.852;9.152;2023-07-20T10:49:32;1.83;;;1.17;;
65971;SDS011;52726;48.852;9.152;2023-07-20T10:51:59;1.25;;;1.15;;
65971;SDS011;52726;48.852;9.152;2023-07-20T10:56:55;2.70;;;1.10;;
65971;SDS011;52726;48.852;9.152;2023-07-20T11:01:50;2.38;;;1.02;;
65971;SDS011;52726;48.852;9.152;2023-07-20T11:04:39;1.92;;;1.00;;
65971;SDS011;52726;48.852;9.152;2023-07-20T11:07:10;3.47;;;1.20;;
65971;SDS011;52726;48.852;9.152;2023-07-20T11:09:39;0.90;;;0.90;;
65971;SDS011;52726;48.852;9.152;2023-07-20T11:14:54;1.50;;;1.00;;
65971;SDS011;52726;48.852;9.152;2023-07-20T11:17:22;1.85;;;1.20;;
65971;SDS011;52726;48.852;9.152;2023-07-20T11:19:58;3.63;;;1.20;;
65971;SDS011;52726;48.852;9.152;2023-07-20T11:22:26;0.85;;;0.85;;
65971;SDS011;52726;48.852;9.152;2023-07-20T11:24:54;2.33;;;0.90;;
65971;SDS011;52726;48.852;9.152;2023-07-20T11:27:20;1.75;;;0.90;;
65971;SDS011;52726;48.852;9.152;2023-07-20T11:29:47;1.98;;;0.90;;
65971;SDS011;52726;48.852;9.152;2023-07-20T11:32:19;2.53;;;0.95;;
65971;SDS011;52726;48.852;9.152;2023-07-20T11:34:48;1.10;;;0.90;;
65971;SDS011;52726;48.852;9.152;2023-07-20T11:37:14;2.17;;;1.00;;
65971;SDS011;52726;48.852;9.152;2023-07-20T11:39:40;0.88;;;0.88;;
65971;SDS011;52726;48.852;9.152;2023-07-20T11:42:05;0.95;;;0.82;;
65971;SDS011;52726;48.852;9.152;2023-07-20T11:44:31;3.83;;;1.00;;
65971;SDS011;52726;48.852;9.152;2023-07-20T11:47:00;2.20;;;1.10;;
65971;SDS011;52726;48.852;9.152;2023-07-20T11:49:36;2.95;;;1.25;;
65971;SDS011;52726;48.852;9.152;2023-07-20T11:52:13;6.95;;;1.40;;
65971;SDS011;52726;48.852;9.152;2023-07-20T11:54:40;1.45;;;1.35;;
65971;SDS011;52726;48.852;9.152;2023-07-20T11:57:06;1.15;;;1.00;;
65971;SDS011;52726;48.852;9.152;2023-07-20T11:59:32;1.17;;;0.95;;
65971;SDS011;52726;48.852;9.152;2023-07-20T12:01:59;3.28;;;1.10;;
65971;SDS011;52726;48.852;9.152;2023-07-20T12:04:26;1.80;;;1.17;;
65971;SDS011;52726;48.852;9.152;2023-07-20T12:06:52;1.38;;;1.02;;
65971;SDS011;52726;48.852;9.152;2023-07-20T12:09:19;1.50;;;0.90;;
65971;SDS011;52726;48.852;9.152;2023-07-20T12:11:45;5.10;;;1.00;;
65971;SDS011;52726;48.852;9.152;2023-07-20T12:14:10;7.03;;;1.33;;
65971;SDS011;52726;48.852;9.152;2023-07-20T12:16:36;1.02;;;0.70;;
65971;SDS011;52726;48.852;9.152;2023-07-20T12:19:06;1.10;;;0.95;;
65971;SDS011;52726;48.852;9.152;2023-07-20T12:21:36;1.30;;;1.08;;
65971;SDS011;52726;48.852;9.152;2023-07-20T12:24:03;1.75;;;0.98;;
65971;SDS011;52726;48.852;9.152;2023-07-20T12:26:29;0.93;;;0.70;;
65971;SDS011;52726;48.852;9.152;2023-07-20T12:28:57;1.40;;;0.85;;
65971;SDS011;52726;48.852;9.152;2023-07-20T12:31:23;1.30;;;1.20;;
65971;SDS011;52726;48.852;9.152;2023-07-20T12:33:49;1.77;;;1.00;;
65971;SDS011;52726;48.852;9.152;2023-07-20T12:36:15;2.67;;;1.35;;
65971;SDS011;52726;48.852;9.152;2023-07-20T12:38:42;2.42;;;1.20;;
65971;SDS011;52726;48.852;9.152;2023-07-20T12:41:09;5.63;;;1.25;;
65971;SDS011;52726;48.852;9.152;2023-07-20T12:43:37;4.22;;;1.20;;
65971;SDS011;52726;48.852;9.152;2023-07-20T12:46:02;3.05;;;1.48;;
65971;SDS011;52726;48.852;9.152;2023-07-20T12:48:28;1.75;;;0.85;;
65971;SDS011;52726;48.852;9.152;2023-07-20T12:50:54;0.98;;;0.98;;
65971;SDS011;52726;48.852;9.152;2023-07-20T12:53:20;5.50;;;1.17;;
65971;SDS011;52726;48.852;9.152;2023-07-20T12:55:46;2.25;;;0.95;;
65971;SDS011;52726;48.852;9.152;2023-07-20T12:58:11;4.60;;;1.00;;
65971;SDS011;52726;48.852;9.152;2023-07-20T13:00:38;1.42;;;1.23;;
65971;SDS011;52726;48.852;9.152;2023-07-20T13:03:04;0.95;;;0.90;;
65971;SDS011;52726;48.852;9.152;2023-07-20T13:05:30;2.47;;;1.00;;
65971;SDS011;52726;48.852;9.152;2023-07-20T13:08:00;2.55;;;1.33;;
65971;SDS011;52726;48.852;9.152;2023-07-20T13:10:25;1.10;;;1.00;;
65971;SDS011;52726;48.852;9.152;2023-07-20T13:12:50;1.17;;;0.98;;
65971;SDS011;52726;48.852;9.152;2023-07-20T13:15:16;2.20;;;0.90;;
65971;SDS011;52726;48.852;9.152;2023-07-20T13:17:42;1.65;;;1.00;;
65971;SDS011;52726;48.852;9.152;2023-07-20T13:20:08;4.22;;;1.10;;
65971;SDS011;52726;48.852;9.152;2023-07-20T13:22:36;1.42;;;1.00;;
65971;SDS011;52726;48.852;9.152;2023-07-20T13:25:02;2.72;;;1.20;;
65971;SDS011;52726;48.852;9.152;2023-07-20T13:27:28;4.32;;;1.08;;
65971;SDS011;52726;48.852;9.152;2023-07-20T13:29:53;1.88;;;1.15;;
65971;SDS011;52726;48.852;9.152;2023-07-20T13:32:19;5.70;;;1.48;;
65971;SDS011;52726;48.852;9.152;2023-07-20T13:34:44;2.20;;;1.20;;
65971;SDS011;52726;48.852;9.152;2023-07-20T13:37:11;1.38;;;1.00;;
65971;SDS011;52726;48.852;9.152;2023-07-20T13:39:37;1.63;;;1.00;;
65971;SDS011;52726;48.852;9.152;2023-07-20T13:42:03;2.97;;;1.50;;
65971;SDS011;52726;48.852;9.152;2023-07-20T13:44:33;1.70;;;1.35;;
65971;SDS011;52726;48.852;9.152;2023-07-20T13:47:05;1.10;;;1.00;;
65971;SDS011;52726;48.852;9.152;2023-07-20T13:49:31;2.35;;;1.10;;
65971;SDS011;52726;48.852;9.152;2023-07-20T13:51:57;1.90;;;1.05;;
65971;SDS011;52726;48.852;9.152;2023-07-20T13:54:23;1.20;;;1.10;;
65971;SDS011;52726;48.852;9.152;2023-07-20T13:56:49;1.02;;;0.93;;
65971;SDS011;52726;48.852;9.152;2023-07-20T13:59:15;2.80;;;1.23;;
65971;SDS011;52726;48.852;9.152;2023-07-20T14:01:40;1.98;;;1.25;;
65971;SDS011;52726;48.852;9.152;2023-07-20T14:04:06;3.63;;;1.40;;
65971;SDS011;52726;48.852;9.152;2023-07-20T14:06:32;2.83;;;1.20;;
65971;SDS011;52726;48.852;9.152;2023-07-20T14:08:58;1.92;;;1.20;;
65971;SDS011;52726;48.852;9.152;2023-07-20T14:11:24;3.28;;;1.58;;
65971;SDS011;52726;48.852;9.152;2023-07-20T14:13:50;3.15;;;1.00;;
65971;SDS011;52726;48.852;9.152;2023-07-20T14:16:18;1.60;;;1.23;;
65971;SDS011;52726;48.852;9.152;2023-07-20T14:18:44;2.40;;;0.93;;
65971;SDS011;52726;48.852;9.152;2023-07-20T14:21:12;1.98;;;1.00;;
65971;SDS011;52726;48.852;9.152;2023-07-20T14:23:38;6.90;;;1.20;;
65971;SDS011;52726;48.852;9.152;2023-07-20T14:26:03;1.33;;;1.17;;
65971;SDS011;52726;48.852;9.152;2023-07-20T14:28:30;1.08;;;0.98;;
65971;SDS011;52726;48.852;9.152;2023-07-20T14:30:56;1.63;;;0.95;;
65971;SDS011;52726;48.852;9.152;2023-07-20T14:36:08;1.38;;;1.00;;
65971;SDS011;52726;48.852;9.152;2023-07-20T14:38:34;1.50;;;1.33;;
65971;SDS011;52726;48.852;9.152;2023-07-20T14:41:00;1.30;;;0.82;;
65971;SDS011;52726;48.852;9.152;2023-07-20T14:43:29;3.03;;;0.90;;
65971;SDS011;52726;48.852;9.152;2023-07-20T14:45:57;2.08;;;1.17;;
65971;SDS011;52726;48.852;9.152;2023-07-20T14:48:23;1.17;;;0.88;;
65971;SDS011;52726;48.852;9.152;2023-07-20T14:50:48;1.23;;;1.10;;
65971;SDS011;52726;48.852;9.152;2023-07-20T14:53:13;1.10;;;0.82;;
65971;SDS011;52726;48.852;9.152;2023-07-20T14:55:39;1.45;;;1.10;;
65971;SDS011;52726;48.852;9.152;2023-07-20T14:58:06;2.42;;;1.30;;
65971;SDS011;52726;48.852;9.152;2023-07-20T15:00:32;0.82;;;0.73;;
65971;SDS011;52726;48.852;9.152;2023-07-20T15:02:57;2.35;;;1.00;;
65971;SDS011;52726;48.852;9.152;2023-07-20T15:05:23;3.05;;;1.00;;
65971;SDS011;52726;48.852;9.152;2023-07-20T15:08:02;1.08;;;0.98;;
65971;SDS011;52726;48.852;9.152;2023-07-20T15:10:28;1.77;;;1.05;;
65971;SDS011;52726;48.852;9.152;2023-07-20T15:16:12;0.80;;;0.80;;
65971;SDS011;52726;48.852;9.152;2023-07-20T15:18:37;1.02;;;0.93;;
65971;SDS011;52726;48.852;9.152;2023-07-20T15:21:03;3.88;;;1.02;;
65971;SDS011;52726;48.852;9.152;2023-07-20T15:23:28;1.20;;;1.10;;
65971;SDS011;52726;48.852;9.152;2023-07-20T15:25:53;1.25;;;1.15;;
65971;SDS011;52726;48.852;9.152;2023-07-20T15:31:42;4.28;;;1.38;;
65971;SDS011;52726;48.852;9.152;2023-07-20T15:34:07;2.40;;;1.70;;
65971;SDS011;52726;48.852;9.152;2023-07-20T15:36:32;2.67;;;1.30;;